sensor_id;sensor_type;location;lat;lon;timestamp;temperature;humidity
31695;DHT22;18289;51.330;4.946;2024-03-25T00:02:09;4.60;99.90
31695;DHT22;18289;51.330;4.946;2024-03-25T00:04:35;4.60;99.90
31695;DHT22;18289;51.330;4.946;2024-03-25T00:07:01;4.50;99.90
31695;DHT22;18289;51.330;4.946;2024-03-25T00:09:27;4.50;99.90
31695;DHT22;18289;51.330;4.946;2024-03-25T00:11:53;4.60;99.90
31695;DHT22;18289;51.330;4.946;2024-03-25T00:14:23;4.60;99.90
31695;DHT22;18289;51.330;4.946;2024-03-25T00:16:49;4.50;99.90
31695;DHT22;18289;51.330;4.946;2024-03-25T00:19:15;4.50;99.90
31695;DHT22;18289;51.330;4.946;2024-03-25T00:21:41;4.50;99.90
31695;DHT22;18289;51.330;4.946;2024-03-25T00:24:08;4.40;99.90
31695;DHT22;18289;51.330;4.946;2024-03-25T00:26:34;4.30;99.90
31695;DHT22;18289;51.330;4.946;2024-03-25T00:31:28;4.30;99.90
31695;DHT22;18289;51.330;4.946;2024-03-25T00:33:54;4.30;99.90
31695;DHT22;18289;51.330;4.946;2024-03-25T00:36:19;4.40;99.90
31695;DHT22;18289;51.330;4.946;2024-03-25T00:38:45;4.30;99.90
31695;DHT22;18289;51.330;4.946;2024-03-25T00:41:11;4.30;99.90
31695;DHT22;18289;51.330;4.946;2024-03-25T00:43:37;4.30;99.90
31695;DHT22;18289;51.330;4.946;2024-03-25T00:46:03;4.30;99.90
31695;DHT22;18289;51.330;4.946;2024-03-25T00:48:28;4.30;99.90
31695;DHT22;18289;51.330;4.946;2024-03-25T00:50:54;4.30;99.90
31695;DHT22;18289;51.330;4.946;2024-03-25T00:53:20;4.30;99.90
31695;DHT22;18289;51.330;4.946;2024-03-25T00:55:45;4.30;99.90
31695;DHT22;18289;51.330;4.946;2024-03-25T00:58:11;4.20;99.90
31695;DHT22;18289;51.330;4.946;2024-03-25T01:00:37;4.20;99.90
31695;DHT22;18289;51.330;4.946;2024-03-25T01:03:03;4.20;99.90
31695;DHT22;18289;51.330;4.946;2024-03-25T01:05:28;4.20;99.90
31695;DHT22;18289;51.330;4.946;2024-03-25T01:07:54;4.30;99.90
31695;DHT22;18289;51.330;4.946;2024-03-25T01:10:20;4.30;99.90
31695;DHT22;18289;51.330;4.946;2024-03-25T01:12:46;4.30;99.90
31695;DHT22;18289;51.330;4.946;2024-03-25T01:15:12;4.20;99.90
31695;DHT22;18289;51.330;4.946;2024-03-25T01:17:38;4.20;99.90
31695;DHT22;18289;51.330;4.946;2024-03-25T01:20:04;4.20;99.90
31695;DHT22;18289;51.330;4.946;2024-03-25T01:22:30;4.20;99.90
31695;DHT22;18289;51.330;4.946;2024-03-25T01:24:57;4.10;99.90
31695;DHT22;18289;51.330;4.946;2024-03-25T01:27:23;4.20;99.90
31695;DHT22;18289;51.330;4.946;2024-03-25T01:29:48;4.10;99.90
31695;DHT22;18289;51.330;4.946;2024-03-25T01:32:14;4.00;99.90
31695;DHT22;18289;51.330;4.946;2024-03-25T01:34:40;4.10;99.90
31695;DHT22;18289;51.330;4.946;2024-03-25T01:37:06;4.10;99.90
31695;DHT22;18289;51.330;4.946;2024-03-25T01:39:31;4.10;99.90
31695;DHT22;18289;51.330;4.946;2024-03-25T01:41:57;4.00;99.90
31695;DHT22;18289;51.330;4.946;2024-03-25T01:44:23;4.00;99.90
31695;DHT22;18289;51.330;4.946;2024-03-25T01:46:50;4.00;99.90
31695;DHT22;18289;51.330;4.946;2024-03-25T01:49:17;4.10;99.90
31695;DHT22;18289;51.330;4.946;2024-03-25T01:51:44;4.10;99.90
31695;DHT22;18289;51.330;4.946;2024-03-25T01:54:10;4.00;99.90
31695;DHT22;18289;51.330;4.946;2024-03-25T01:56:36;4.10;99.90
31695;DHT22;18289;51.330;4.946;2024-03-25T01:59:04;4.10;99.90
31695;DHT22;18289;51.330;4.946;2024-03-25T02:01:29;4.00;99.90
31695;DHT22;18289;51.330;4.946;2024-03-25T02:03:56;3.90;99.90
31695;DHT22;18289;51.330;4.946;2024-03-25T02:06:24;3.90;99.90
31695;DHT22;18289;51.330;4.946;2024-03-25T02:08:52;3.90;99.90
31695;DHT22;18289;51.330;4.946;2024-03-25T02:11:18;3.80;99.90
31695;DHT22;18289;51.330;4.946;2024-03-25T02:13:48;3.80;99.90
31695;DHT22;18289;51.330;4.946;2024-03-25T02:16:14;3.80;99.90
31695;DHT22;18289;51.330;4.946;2024-03-25T02:18:39;3.70;99.90
31695;DHT22;18289;51.330;4.946;2024-03-25T02:21:05;3.60;99.90
31695;DHT22;18289;51.330;4.946;2024-03-25T02:23:32;3.70;99.90
31695;DHT22;18289;51.330;4.946;2024-03-25T02:25:59;3.60;99.90
31695;DHT22;18289;51.330;4.946;2024-03-25T02:28:25;3.60;99.90
31695;DHT22;18289;51.330;4.946;2024-03-25T02:30:51;3.60;99.90
31695;DHT22;18289;51.330;4.946;2024-03-25T02:33:17;3.50;99.90
31695;DHT22;18289;51.330;4.946;2024-03-25T02:35:43;3.50;99.90
31695;DHT22;18289;51.330;4.946;2024-03-25T02:38:10;3.40;99.90
31695;DHT22;18289;51.330;4.946;2024-03-25T02:40:36;3.30;99.90
31695;DHT22;18289;51.330;4.946;2024-03-25T02:43:03;3.20;99.90
31695;DHT22;18289;51.330;4.946;2024-03-25T02:45:29;3.10;99.90
31695;DHT22;18289;51.330;4.946;2024-03-25T02:47:55;3.20;99.90
31695;DHT22;18289;51.330;4.946;2024-03-25T02:50:21;3.10;99.90
31695;DHT22;18289;51.330;4.946;2024-03-25T02:52:47;3.00;99.90
31695;DHT22;18289;51.330;4.946;2024-03-25T02:55:12;2.90;99.90
31695;DHT22;18289;51.330;4.946;2024-03-25T02:57:38;2.90;99.90
31695;DHT22;18289;51.330;4.946;2024-03-25T03:00:04;2.90;99.90
31695;DHT22;18289;51.330;4.946;2024-03-25T03:02:30;3.00;99.90
31695;DHT22;18289;51.330;4.946;2024-03-25T03:04:56;2.90;99.90
31695;DHT22;18289;51.330;4.946;2024-03-25T03:07:22;2.90;99.90
31695;DHT22;18289;51.330;4.946;2024-03-25T03:09:48;2.80;99.90
31695;DHT22;18289;51.330;4.946;2024-03-25T03:12:13;2.80;99.90
31695;DHT22;18289;51.330;4.946;2024-03-25T03:14:39;2.80;99.90
31695;DHT22;18289;51.330;4.946;2024-03-25T03:17:05;2.80;99.90
31695;DHT22;18289;51.330;4.946;2024-03-25T03:19:31;2.80;99.90
31695;DHT22;18289;51.330;4.946;2024-03-25T03:21:57;2.70;99.90
31695;DHT22;18289;51.330;4.946;2024-03-25T03:24:23;2.70;99.90
31695;DHT22;18289;51.330;4.946;2024-03-25T03:26:49;2.70;99.90
31695;DHT22;18289;51.330;4.946;2024-03-25T03:29:15;2.80;99.90
31695;DHT22;18289;51.330;4.946;2024-03-25T03:31:41;2.80;99.90
31695;DHT22;18289;51.330;4.946;2024-03-25T03:34:07;2.90;99.90
31695;DHT22;18289;51.330;4.946;2024-03-25T03:36:33;2.80;99.90
31695;DHT22;18289;51.330;4.946;2024-03-25T03:38:59;2.90;99.90
31695;DHT22;18289;51.330;4.946;2024-03-25T03:41:24;2.80;99.90
31695;DHT22;18289;51.330;4.946;2024-03-25T03:43:50;2.80;99.90
31695;DHT22;18289;51.330;4.946;2024-03-25T03:46:16;2.80;99.90
31695;DHT22;18289;51.330;4.946;2024-03-25T03:48:41;2.80;99.90
31695;DHT22;18289;51.330;4.946;2024-03-25T03:51:09;2.70;99.90
31695;DHT22;18289;51.330;4.946;2024-03-25T03:53:35;2.50;99.90
31695;DHT22;18289;51.330;4.946;2024-03-25T03:56:03;2.60;99.90
31695;DHT22;18289;51.330;4.946;2024-03-25T03:58:30;2.60;99.90
31695;DHT22;18289;51.330;4.946;2024-03-25T04:00:56;2.50;99.90
31695;DHT22;18289;51.330;4.946;2024-03-25T04:03:22;2.40;99.90
31695;DHT22;18289;51.330;4.946;2024-03-25T04:05:48;2.40;99.90
31695;DHT22;18289;51.330;4.946;2024-03-25T04:08:14;2.40;99.90
31695;DHT22;18289;51.330;4.946;2024-03-25T04:10:40;2.40;99.90
31695;DHT22;18289;51.330;4.946;2024-03-25T04:13:06;2.30;99.90
31695;DHT22;18289;51.330;4.946;2024-03-25T04:15:34;2.40;99.90
31695;DHT22;18289;51.330;4.946;2024-03-25T04:18:00;2.40;99.90
31695;DHT22;18289;51.330;4.946;2024-03-25T04:20:27;2.40;99.90
31695;DHT22;18289;51.330;4.946;2024-03-25T04:22:54;2.40;99.90
31695;DHT22;18289;51.330;4.946;2024-03-25T04:25:20;2.40;99.90
31695;DHT22;18289;51.330;4.946;2024-03-25T04:27:47;2.40;99.90
31695;DHT22;18289;51.330;4.946;2024-03-25T04:30:13;2.30;99.90
31695;DHT22;18289;51.330;4.946;2024-03-25T04:32:39;2.30;99.90
31695;DHT22;18289;51.330;4.946;2024-03-25T04:35:06;2.10;99.90
31695;DHT22;18289;51.330;4.946;2024-03-25T04:37:32;2.30;99.90
31695;DHT22;18289;51.330;4.946;2024-03-25T04:39:58;2.20;99.90
31695;DHT22;18289;51.330;4.946;2024-03-25T04:42:24;2.20;99.90
31695;DHT22;18289;51.330;4.946;2024-03-25T04:44:50;2.20;99.90
31695;DHT22;18289;51.330;4.946;2024-03-25T04:47:19;2.00;99.90
31695;DHT22;18289;51.330;4.946;2024-03-25T04:49:45;2.10;99.90
31695;DHT22;18289;51.330;4.946;2024-03-25T04:52:15;2.10;99.90
31695;DHT22;18289;51.330;4.946;2024-03-25T04:54:44;2.10;99.90
31695;DHT22;18289;51.330;4.946;2024-03-25T04:57:10;2.10;99.90
31695;DHT22;18289;51.330;4.946;2024-03-25T04:59:36;2.10;99.90
31695;DHT22;18289;51.330;4.946;2024-03-25T05:02:02;2.00;99.90
31695;DHT22;18289;51.330;4.946;2024-03-25T05:04:28;2.00;99.90
31695;DHT22;18289;51.330;4.946;2024-03-25T05:06:55;2.00;99.90
31695;DHT22;18289;51.330;4.946;2024-03-25T05:09:20;2.00;99.90
31695;DHT22;18289;51.330;4.946;2024-03-25T05:11:46;2.00;99.90
31695;DHT22;18289;51.330;4.946;2024-03-25T05:14:12;2.00;99.90
31695;DHT22;18289;51.330;4.946;2024-03-25T05:16:38;2.00;99.90
31695;DHT22;18289;51.330;4.946;2024-03-25T05:19:04;2.00;99.90
31695;DHT22;18289;51.330;4.946;2024-03-25T05:21:30;1.90;99.90
31695;DHT22;18289;51.330;4.946;2024-03-25T05:23:56;2.00;99.90
31695;DHT22;18289;51.330;4.946;2024-03-25T05:26:22;2.00;99.90
31695;DHT22;18289;51.330;4.946;2024-03-25T05:28:55;2.00;99.90
31695;DHT22;18289;51.330;4.946;2024-03-25T05:31:21;1.90;99.90
31695;DHT22;18289;51.330;4.946;2024-03-25T05:33:47;2.20;99.90
31695;DHT22;18289;51.330;4.946;2024-03-25T05:36:13;2.20;99.90
31695;DHT22;18289;51.330;4.946;2024-03-25T05:38:40;2.20;99.90
31695;DHT22;18289;51.330;4.946;2024-03-25T05:41:07;2.30;99.90
31695;DHT22;18289;51.330;4.946;2024-03-25T05:43:33;2.50;99.90
31695;DHT22;18289;51.330;4.946;2024-03-25T05:45:58;2.70;99.90
31695;DHT22;18289;51.330;4.946;2024-03-25T05:48:25;2.80;99.90
31695;DHT22;18289;51.330;4.946;2024-03-25T05:51:03;2.90;99.90
31695;DHT22;18289;51.330;4.946;2024-03-25T05:53:30;3.10;99.90
31695;DHT22;18289;51.330;4.946;2024-03-25T05:55:56;3.20;99.90
31695;DHT22;18289;51.330;4.946;2024-03-25T05:58:25;3.30;99.90
31695;DHT22;18289;51.330;4.946;2024-03-25T06:00:51;3.50;99.90
31695;DHT22;18289;51.330;4.946;2024-03-25T06:03:18;3.60;99.90
31695;DHT22;18289;51.330;4.946;2024-03-25T06:05:44;3.60;99.90
31695;DHT22;18289;51.330;4.946;2024-03-25T06:08:10;3.60;99.90
31695;DHT22;18289;51.330;4.946;2024-03-25T06:11:01;3.70;99.90
31695;DHT22;18289;51.330;4.946;2024-03-25T06:13:27;3.80;99.90
31695;DHT22;18289;51.330;4.946;2024-03-25T06:15:53;3.70;99.90
31695;DHT22;18289;51.330;4.946;2024-03-25T06:18:19;3.70;99.90
31695;DHT22;18289;51.330;4.946;2024-03-25T06:20:45;3.80;99.90
31695;DHT22;18289;51.330;4.946;2024-03-25T06:23:10;3.90;99.90
31695;DHT22;18289;51.330;4.946;2024-03-25T06:25:37;3.70;99.90
31695;DHT22;18289;51.330;4.946;2024-03-25T06:28:03;3.80;99.90
31695;DHT22;18289;51.330;4.946;2024-03-25T06:30:29;3.90;99.90
31695;DHT22;18289;51.330;4.946;2024-03-25T06:33:13;4.00;99.90
31695;DHT22;18289;51.330;4.946;2024-03-25T06:35:57;4.20;99.90
31695;DHT22;18289;51.330;4.946;2024-03-25T06:38:23;4.30;99.90
31695;DHT22;18289;51.330;4.946;2024-03-25T06:40:49;4.50;99.90
31695;DHT22;18289;51.330;4.946;2024-03-25T06:43:17;4.50;99.90
31695;DHT22;18289;51.330;4.946;2024-03-25T06:45:44;4.60;99.90
31695;DHT22;18289;51.330;4.946;2024-03-25T06:48:10;4.60;99.90
31695;DHT22;18289;51.330;4.946;2024-03-25T06:50:35;4.70;99.90
31695;DHT22;18289;51.330;4.946;2024-03-25T06:53:02;4.80;99.90
31695;DHT22;18289;51.330;4.946;2024-03-25T06:57:58;4.90;99.90
31695;DHT22;18289;51.330;4.946;2024-03-25T07:00:24;4.90;99.90
31695;DHT22;18289;51.330;4.946;2024-03-25T07:02:50;5.10;99.90
31695;DHT22;18289;51.330;4.946;2024-03-25T07:05:16;5.10;99.90
31695;DHT22;18289;51.330;4.946;2024-03-25T07:07:41;5.40;99.90
31695;DHT22;18289;51.330;4.946;2024-03-25T07:10:07;5.50;99.90
31695;DHT22;18289;51.330;4.946;2024-03-25T07:12:33;5.70;99.90
31695;DHT22;18289;51.330;4.946;2024-03-25T07:14:59;5.70;99.90
31695;DHT22;18289;51.330;4.946;2024-03-25T07:17:25;5.80;99.90
31695;DHT22;18289;51.330;4.946;2024-03-25T07:19:51;5.80;99.90
31695;DHT22;18289;51.330;4.946;2024-03-25T07:22:17;5.80;99.90
31695;DHT22;18289;51.330;4.946;2024-03-25T07:24:43;5.90;99.90
31695;DHT22;18289;51.330;4.946;2024-03-25T07:27:10;6.10;99.90
31695;DHT22;18289;51.330;4.946;2024-03-25T07:29:36;6.30;99.90
31695;DHT22;18289;51.330;4.946;2024-03-25T07:32:03;6.40;99.90
31695;DHT22;18289;51.330;4.946;2024-03-25T07:34:28;6.60;99.90
31695;DHT22;18289;51.330;4.946;2024-03-25T07:36:54;6.70;99.90
31695;DHT22;18289;51.330;4.946;2024-03-25T07:39:20;6.90;99.90
31695;DHT22;18289;51.330;4.946;2024-03-25T07:41:49;7.00;99.90
31695;DHT22;18289;51.330;4.946;2024-03-25T07:44:15;7.20;99.90
31695;DHT22;18289;51.330;4.946;2024-03-25T07:46:41;7.30;99.90
31695;DHT22;18289;51.330;4.946;2024-03-25T07:49:07;7.40;99.90
31695;DHT22;18289;51.330;4.946;2024-03-25T07:51:34;7.40;99.90
31695;DHT22;18289;51.330;4.946;2024-03-25T07:54:01;7.80;99.90
31695;DHT22;18289;51.330;4.946;2024-03-25T07:56:27;8.00;99.90
31695;DHT22;18289;51.330;4.946;2024-03-25T07:58:54;8.30;99.90
31695;DHT22;18289;51.330;4.946;2024-03-25T08:01:20;8.60;99.90
31695;DHT22;18289;51.330;4.946;2024-03-25T08:03:45;8.90;99.90
31695;DHT22;18289;51.330;4.946;2024-03-25T08:06:11;8.80;99.90
31695;DHT22;18289;51.330;4.946;2024-03-25T08:08:37;9.00;99.90
31695;DHT22;18289;51.330;4.946;2024-03-25T08:11:02;9.20;99.90
31695;DHT22;18289;51.330;4.946;2024-03-25T08:13:28;9.40;99.90
31695;DHT22;18289;51.330;4.946;2024-03-25T08:15:54;9.60;99.90
31695;DHT22;18289;51.330;4.946;2024-03-25T08:18:19;9.60;99.90
31695;DHT22;18289;51.330;4.946;2024-03-25T08:20:45;9.90;99.90
31695;DHT22;18289;51.330;4.946;2024-03-25T08:23:11;10.10;99.90
31695;DHT22;18289;51.330;4.946;2024-03-25T08:25:37;10.20;99.90
31695;DHT22;18289;51.330;4.946;2024-03-25T08:28:02;10.70;99.90
31695;DHT22;18289;51.330;4.946;2024-03-25T08:30:28;10.90;99.90
31695;DHT22;18289;51.330;4.946;2024-03-25T08:32:54;11.20;99.90
31695;DHT22;18289;51.330;4.946;2024-03-25T08:35:19;11.40;99.90
31695;DHT22;18289;51.330;4.946;2024-03-25T08:37:45;11.60;99.90
31695;DHT22;18289;51.330;4.946;2024-03-25T08:40:11;12.50;99.90
31695;DHT22;18289;51.330;4.946;2024-03-25T08:42:37;12.40;99.90
31695;DHT22;18289;51.330;4.946;2024-03-25T08:45:03;12.30;99.90
31695;DHT22;18289;51.330;4.946;2024-03-25T08:47:29;12.20;99.90
31695;DHT22;18289;51.330;4.946;2024-03-25T08:49:54;12.40;99.90
31695;DHT22;18289;51.330;4.946;2024-03-25T08:52:20;12.40;99.90
31695;DHT22;18289;51.330;4.946;2024-03-25T08:54:46;13.10;99.90
31695;DHT22;18289;51.330;4.946;2024-03-25T08:57:12;13.20;99.90
31695;DHT22;18289;51.330;4.946;2024-03-25T08:59:37;13.50;99.90
31695;DHT22;18289;51.330;4.946;2024-03-25T09:02:05;14.00;99.90
31695;DHT22;18289;51.330;4.946;2024-03-25T09:04:32;14.30;99.90
31695;DHT22;18289;51.330;4.946;2024-03-25T09:06:57;14.40;99.90
31695;DHT22;18289;51.330;4.946;2024-03-25T09:09:23;14.60;99.90
31695;DHT22;18289;51.330;4.946;2024-03-25T09:12:08;15.10;99.90
31695;DHT22;18289;51.330;4.946;2024-03-25T09:14:33;15.60;99.90
31695;DHT22;18289;51.330;4.946;2024-03-25T09:16:59;15.60;99.90
31695;DHT22;18289;51.330;4.946;2024-03-25T09:19:25;15.80;99.90
31695;DHT22;18289;51.330;4.946;2024-03-25T09:21:51;15.90;99.90
31695;DHT22;18289;51.330;4.946;2024-03-25T09:24:17;16.30;99.90
31695;DHT22;18289;51.330;4.946;2024-03-25T09:26:43;16.40;99.90
31695;DHT22;18289;51.330;4.946;2024-03-25T09:29:12;16.50;99.90
31695;DHT22;18289;51.330;4.946;2024-03-25T09:31:38;16.70;99.90
31695;DHT22;18289;51.330;4.946;2024-03-25T09:34:04;17.40;99.90
31695;DHT22;18289;51.330;4.946;2024-03-25T09:36:30;17.50;99.90
31695;DHT22;18289;51.330;4.946;2024-03-25T09:38:56;17.30;99.90
31695;DHT22;18289;51.330;4.946;2024-03-25T09:41:22;17.30;99.90
31695;DHT22;18289;51.330;4.946;2024-03-25T09:43:51;16.90;99.90
31695;DHT22;18289;51.330;4.946;2024-03-25T09:46:18;17.00;99.90
31695;DHT22;18289;51.330;4.946;2024-03-25T09:48:44;17.20;99.90
31695;DHT22;18289;51.330;4.946;2024-03-25T09:51:10;17.10;99.90
31695;DHT22;18289;51.330;4.946;2024-03-25T09:53:36;17.30;99.90
31695;DHT22;18289;51.330;4.946;2024-03-25T09:56:01;16.90;99.90
31695;DHT22;18289;51.330;4.946;2024-03-25T09:58:27;16.10;99.90
31695;DHT22;18289;51.330;4.946;2024-03-25T10:00:54;15.40;99.90
31695;DHT22;18289;51.330;4.946;2024-03-25T10:03:21;15.20;99.90
31695;DHT22;18289;51.330;4.946;2024-03-25T10:05:47;14.80;99.90
31695;DHT22;18289;51.330;4.946;2024-03-25T10:08:13;14.80;99.90
31695;DHT22;18289;51.330;4.946;2024-03-25T10:10:39;15.20;99.90
31695;DHT22;18289;51.330;4.946;2024-03-25T10:13:05;15.40;99.90
31695;DHT22;18289;51.330;4.946;2024-03-25T10:17:58;16.20;99.90
31695;DHT22;18289;51.330;4.946;2024-03-25T10:20:24;16.60;99.90
31695;DHT22;18289;51.330;4.946;2024-03-25T10:25:26;16.80;99.90
31695;DHT22;18289;51.330;4.946;2024-03-25T10:27:59;16.90;99.90
31695;DHT22;18289;51.330;4.946;2024-03-25T10:30:29;17.80;99.90
31695;DHT22;18289;51.330;4.946;2024-03-25T10:33:04;18.40;99.90
31695;DHT22;18289;51.330;4.946;2024-03-25T10:35:35;18.60;99.90
31695;DHT22;18289;51.330;4.946;2024-03-25T10:38:06;19.20;99.90
31695;DHT22;18289;51.330;4.946;2024-03-25T10:40:34;19.80;99.90
31695;DHT22;18289;51.330;4.946;2024-03-25T10:43:02;20.40;99.90
31695;DHT22;18289;51.330;4.946;2024-03-25T10:45:31;21.00;97.80
31695;DHT22;18289;51.330;4.946;2024-03-25T10:48:02;20.70;96.40
31695;DHT22;18289;51.330;4.946;2024-03-25T10:50:29;20.30;96.90
31695;DHT22;18289;51.330;4.946;2024-03-25T10:52:57;21.20;99.10
31695;DHT22;18289;51.330;4.946;2024-03-25T10:55:24;21.40;99.90
31695;DHT22;18289;51.330;4.946;2024-03-25T10:57:52;22.40;95.50
31695;DHT22;18289;51.330;4.946;2024-03-25T11:00:19;22.50;94.60
31695;DHT22;18289;51.330;4.946;2024-03-25T11:02:47;22.20;94.70
31695;DHT22;18289;51.330;4.946;2024-03-25T11:05:13;22.80;92.10
31695;DHT22;18289;51.330;4.946;2024-03-25T11:07:40;23.10;89.90
31695;DHT22;18289;51.330;4.946;2024-03-25T11:10:07;22.90;90.10
31695;DHT22;18289;51.330;4.946;2024-03-25T11:12:38;23.20;89.00
31695;DHT22;18289;51.330;4.946;2024-03-25T11:15:06;23.00;87.30
31695;DHT22;18289;51.330;4.946;2024-03-25T11:17:36;22.50;86.30
31695;DHT22;18289;51.330;4.946;2024-03-25T11:20:12;22.40;90.20
31695;DHT22;18289;51.330;4.946;2024-03-25T11:22:53;23.30;85.10
31695;DHT22;18289;51.330;4.946;2024-03-25T11:25:20;22.90;92.40
31695;DHT22;18289;51.330;4.946;2024-03-25T11:27:47;23.70;82.60
31695;DHT22;18289;51.330;4.946;2024-03-25T11:30:14;23.60;86.80
31695;DHT22;18289;51.330;4.946;2024-03-25T11:32:51;23.80;87.10
31695;DHT22;18289;51.330;4.946;2024-03-25T11:35:17;24.20;81.50
31695;DHT22;18289;51.330;4.946;2024-03-25T11:40:12;24.10;78.10
31695;DHT22;18289;51.330;4.946;2024-03-25T11:42:42;25.00;77.60
31695;DHT22;18289;51.330;4.946;2024-03-25T11:45:18;24.30;78.20
31695;DHT22;18289;51.330;4.946;2024-03-25T11:47:44;24.00;83.20
31695;DHT22;18289;51.330;4.946;2024-03-25T11:50:16;24.60;77.60
31695;DHT22;18289;51.330;4.946;2024-03-25T11:52:41;25.40;74.90
31695;DHT22;18289;51.330;4.946;2024-03-25T11:55:08;26.10;83.30
31695;DHT22;18289;51.330;4.946;2024-03-25T11:57:35;26.60;78.80
31695;DHT22;18289;51.330;4.946;2024-03-25T12:00:02;26.40;72.00
31695;DHT22;18289;51.330;4.946;2024-03-25T12:02:31;24.80;73.80
31695;DHT22;18289;51.330;4.946;2024-03-25T12:04:57;23.80;77.40
31695;DHT22;18289;51.330;4.946;2024-03-25T12:07:23;23.20;72.70
31695;DHT22;18289;51.330;4.946;2024-03-25T12:09:48;23.70;79.90
31695;DHT22;18289;51.330;4.946;2024-03-25T12:12:33;23.50;74.60
31695;DHT22;18289;51.330;4.946;2024-03-25T12:15:00;22.10;70.80
31695;DHT22;18289;51.330;4.946;2024-03-25T12:17:28;20.40;69.50
31695;DHT22;18289;51.330;4.946;2024-03-25T12:20:04;19.80;86.60
31695;DHT22;18289;51.330;4.946;2024-03-25T12:22:31;21.40;82.50
31695;DHT22;18289;51.330;4.946;2024-03-25T12:25:02;22.60;75.10
31695;DHT22;18289;51.330;4.946;2024-03-25T12:27:33;22.40;73.50
31695;DHT22;18289;51.330;4.946;2024-03-25T12:30:09;20.90;69.20
31695;DHT22;18289;51.330;4.946;2024-03-25T12:32:40;19.90;74.30
31695;DHT22;18289;51.330;4.946;2024-03-25T12:35:11;19.20;83.10
31695;DHT22;18289;51.330;4.946;2024-03-25T12:37:40;19.00;84.50
31695;DHT22;18289;51.330;4.946;2024-03-25T12:40:09;20.30;80.70
31695;DHT22;18289;51.330;4.946;2024-03-25T12:42:36;22.00;77.50
31695;DHT22;18289;51.330;4.946;2024-03-25T12:45:02;22.20;75.90
31695;DHT22;18289;51.330;4.946;2024-03-25T12:47:29;21.10;75.50
31695;DHT22;18289;51.330;4.946;2024-03-25T12:49:54;20.50;75.80
31695;DHT22;18289;51.330;4.946;2024-03-25T12:52:20;20.30;76.60
31695;DHT22;18289;51.330;4.946;2024-03-25T12:54:46;19.20;72.60
31695;DHT22;18289;51.330;4.946;2024-03-25T12:57:12;19.10;82.10
31695;DHT22;18289;51.330;4.946;2024-03-25T12:59:38;20.80;77.30
31695;DHT22;18289;51.330;4.946;2024-03-25T13:02:04;22.20;72.30
31695;DHT22;18289;51.330;4.946;2024-03-25T13:04:30;23.60;70.20
31695;DHT22;18289;51.330;4.946;2024-03-25T13:06:56;24.10;71.50
31695;DHT22;18289;51.330;4.946;2024-03-25T13:09:21;23.50;66.70
31695;DHT22;18289;51.330;4.946;2024-03-25T13:11:47;24.50;67.50
31695;DHT22;18289;51.330;4.946;2024-03-25T13:14:13;24.50;67.20
31695;DHT22;18289;51.330;4.946;2024-03-25T13:16:41;25.50;66.60
31695;DHT22;18289;51.330;4.946;2024-03-25T13:19:07;26.00;63.50
31695;DHT22;18289;51.330;4.946;2024-03-25T13:21:33;26.20;64.00
31695;DHT22;18289;51.330;4.946;2024-03-25T13:23:59;26.70;68.80
31695;DHT22;18289;51.330;4.946;2024-03-25T13:26:25;27.40;65.60
31695;DHT22;18289;51.330;4.946;2024-03-25T13:28:51;27.30;61.80
31695;DHT22;18289;51.330;4.946;2024-03-25T13:31:17;27.70;60.20
31695;DHT22;18289;51.330;4.946;2024-03-25T13:33:43;27.80;62.10
31695;DHT22;18289;51.330;4.946;2024-03-25T13:36:08;27.70;62.10
31695;DHT22;18289;51.330;4.946;2024-03-25T13:38:34;27.90;59.10
31695;DHT22;18289;51.330;4.946;2024-03-25T13:41:01;27.40;57.60
31695;DHT22;18289;51.330;4.946;2024-03-25T13:43:27;27.80;58.70
31695;DHT22;18289;51.330;4.946;2024-03-25T13:45:53;27.50;54.30
31695;DHT22;18289;51.330;4.946;2024-03-25T13:48:18;26.50;54.50
31695;DHT22;18289;51.330;4.946;2024-03-25T13:50:44;26.50;56.30
31695;DHT22;18289;51.330;4.946;2024-03-25T13:53:10;27.60;52.20
31695;DHT22;18289;51.330;4.946;2024-03-25T13:55:36;27.60;54.60
31695;DHT22;18289;51.330;4.946;2024-03-25T13:58:02;27.30;50.30
31695;DHT22;18289;51.330;4.946;2024-03-25T14:00:27;27.10;54.50
31695;DHT22;18289;51.330;4.946;2024-03-25T14:02:56;27.00;55.90
31695;DHT22;18289;51.330;4.946;2024-03-25T14:05:22;28.00;53.40
31695;DHT22;18289;51.330;4.946;2024-03-25T14:07:51;27.70;52.40
31695;DHT22;18289;51.330;4.946;2024-03-25T14:10:17;26.70;51.60
31695;DHT22;18289;51.330;4.946;2024-03-25T14:12:46;26.30;52.70
31695;DHT22;18289;51.330;4.946;2024-03-25T14:17:39;26.40;52.30
31695;DHT22;18289;51.330;4.946;2024-03-25T14:20:05;26.20;54.40
31695;DHT22;18289;51.330;4.946;2024-03-25T14:22:32;26.30;55.20
31695;DHT22;18289;51.330;4.946;2024-03-25T14:24:58;26.10;51.50
31695;DHT22;18289;51.330;4.946;2024-03-25T14:27:27;25.70;55.70
31695;DHT22;18289;51.330;4.946;2024-03-25T14:29:52;25.20;51.20
31695;DHT22;18289;51.330;4.946;2024-03-25T14:32:22;24.50;55.00
31695;DHT22;18289;51.330;4.946;2024-03-25T14:34:49;24.90;56.10
31695;DHT22;18289;51.330;4.946;2024-03-25T14:37:15;24.90;53.50
31695;DHT22;18289;51.330;4.946;2024-03-25T14:39:41;25.10;52.10
31695;DHT22;18289;51.330;4.946;2024-03-25T14:42:10;25.40;53.50
31695;DHT22;18289;51.330;4.946;2024-03-25T14:44:37;25.10;51.40
31695;DHT22;18289;51.330;4.946;2024-03-25T14:47:03;23.80;54.30
31695;DHT22;18289;51.330;4.946;2024-03-25T14:51:56;23.00;55.60
31695;DHT22;18289;51.330;4.946;2024-03-25T14:54:22;22.60;59.10
31695;DHT22;18289;51.330;4.946;2024-03-25T14:59:23;22.60;55.80
31695;DHT22;18289;51.330;4.946;2024-03-25T15:01:49;23.00;60.30
31695;DHT22;18289;51.330;4.946;2024-03-25T15:04:15;23.20;56.00
31695;DHT22;18289;51.330;4.946;2024-03-25T15:06:41;23.20;58.20
31695;DHT22;18289;51.330;4.946;2024-03-25T15:09:06;23.10;57.90
31695;DHT22;18289;51.330;4.946;2024-03-25T15:11:32;22.70;57.70
31695;DHT22;18289;51.330;4.946;2024-03-25T15:13:58;22.20;57.30
31695;DHT22;18289;51.330;4.946;2024-03-25T15:16:23;22.20;58.10
31695;DHT22;18289;51.330;4.946;2024-03-25T15:18:50;22.50;57.20
31695;DHT22;18289;51.330;4.946;2024-03-25T15:21:16;22.40;58.70
31695;DHT22;18289;51.330;4.946;2024-03-25T15:23:42;22.20;57.10
31695;DHT22;18289;51.330;4.946;2024-03-25T15:26:07;22.70;58.10
31695;DHT22;18289;51.330;4.946;2024-03-25T15:28:33;22.90;57.10
31695;DHT22;18289;51.330;4.946;2024-03-25T15:30:59;23.20;54.50
31695;DHT22;18289;51.330;4.946;2024-03-25T15:33:25;23.00;56.50
31695;DHT22;18289;51.330;4.946;2024-03-25T15:35:54;22.60;58.10
31695;DHT22;18289;51.330;4.946;2024-03-25T15:38:19;22.40;60.50
31695;DHT22;18289;51.330;4.946;2024-03-25T15:40:48;22.00;57.50
31695;DHT22;18289;51.330;4.946;2024-03-25T15:43:17;21.40;59.10
31695;DHT22;18289;51.330;4.946;2024-03-25T15:45:54;20.80;58.70
31695;DHT22;18289;51.330;4.946;2024-03-25T15:48:20;20.50;59.20
31695;DHT22;18289;51.330;4.946;2024-03-25T15:50:45;20.30;61.60
31695;DHT22;18289;51.330;4.946;2024-03-25T15:53:11;20.00;58.90
31695;DHT22;18289;51.330;4.946;2024-03-25T15:55:37;19.30;61.60
31695;DHT22;18289;51.330;4.946;2024-03-25T15:58:02;18.90;64.60